Current | Forecast
Updated: 10:00 AM +07 on March 29, 2017
Observed at Plotnikovo, Russia
Temperature 37°F
Windchill 27°F
Humidity 75%
Dew Point 30°F
Wind South at 20 mph
Pressure 29.92 in (Steady)
Conditions Clear
Visibility -
UV N/A
Clouds
Yesterday's Maximum 39°F
Yesterday's Minimum 32°F approx.
Yesterday's Heating Degree Days 29 approx.
Sunrise5:52 AM +06
Sunset6:48 PM +06
Moon Rise6:44 AM +06
Moon Set8:25 PM +06
Moon PhaseMoon Phase
New Moon
Raw METARMETAR UNTT 290300Z 17009MPS CAVOK 03/M01 Q1013 R21/190045 NOSIG RMK QFE745


Monday
. High: 51° F.
Tuesday
. High: 55° F.
Wednesday
. High: 53° F.
Thursday
. High: 50° F.
Friday
. High: 57° F.
Saturday
. High: 62° F.
Sunday
. High: 75° F.
Monday
. High: 66° F.

Units: English | Metric

Find the Weather for any City, State or Zipcode, or Country:

U.S. State List | Severe Weather | Tropical Storms | Ski Conditions
United States | Canada | Central America | South America | Asia | Europe | Australia | Africa | Islands

Weather Underground

© Copyright 2017
The Weather Company, LLC